createdAt,value
2023-05-13T00:01:45.598Z,8.90
2023-05-13T00:04:13.186Z,8.90
2023-05-13T00:06:41.185Z,9.40
2023-05-13T00:09:09.797Z,8.00
2023-05-13T00:11:37.450Z,8.60
2023-05-13T00:14:06.463Z,8.80
2023-05-13T00:16:34.067Z,9.80
2023-05-13T00:19:01.756Z,9.10
2023-05-13T00:21:29.391Z,9.80
2023-05-13T00:23:57.140Z,10.00
2023-05-13T00:26:24.936Z,9.80
2023-05-13T00:28:52.600Z,10.40
2023-05-13T00:31:20.284Z,12.30
2023-05-13T00:33:47.923Z,13.20
2023-05-13T00:36:15.912Z,12.90
2023-05-13T00:38:44.283Z,12.80
2023-05-13T00:41:12.283Z,11.40
2023-05-13T00:43:39.858Z,11.60
2023-05-13T00:46:07.799Z,11.00
2023-05-13T00:48:35.446Z,11.10
2023-05-13T00:51:04.413Z,10.60
2023-05-13T00:53:33.109Z,9.90
2023-05-13T00:56:00.727Z,10.20
2023-05-13T00:58:28.341Z,10.00
2023-05-13T01:01:44.618Z,10.30
2023-05-13T01:04:31.199Z,10.00
2023-05-13T01:07:27.553Z,11.20
2023-05-13T01:10:02.517Z,11.20
2023-05-13T01:12:33.615Z,11.10
2023-05-13T01:15:15.486Z,10.60
2023-05-13T01:17:57.506Z,11.10
2023-05-13T01:20:27.057Z,11.60
2023-05-13T01:22:56.556Z,10.70
2023-05-13T01:25:25.621Z,11.50
2023-05-13T01:27:53.699Z,12.10
2023-05-13T01:30:22.155Z,11.90
2023-05-13T01:32:50.764Z,14.50
2023-05-13T01:35:19.702Z,14.70
2023-05-13T01:37:48.899Z,14.90
2023-05-13T01:40:31.096Z,14.70
2023-05-13T01:43:03.368Z,13.60
2023-05-13T01:45:33.282Z,14.20
2023-05-13T01:48:01.806Z,12.50
2023-05-13T01:50:37.652Z,13.50
2023-05-13T01:53:06.266Z,13.30
2023-05-13T01:55:34.057Z,13.60
2023-05-13T01:58:03.409Z,13.40
2023-05-13T02:00:31.006Z,13.90
2023-05-13T02:02:58.746Z,13.40
2023-05-13T02:05:26.443Z,13.60
2023-05-13T02:07:54.826Z,13.60
2023-05-13T02:10:22.693Z,11.70
2023-05-13T02:12:50.464Z,13.10
2023-05-13T02:15:19.317Z,12.80
2023-05-13T02:17:46.932Z,14.10
2023-05-13T02:20:14.746Z,13.30
2023-05-13T02:22:42.471Z,14.00
2023-05-13T02:25:10.386Z,13.40
2023-05-13T02:27:38.082Z,13.90
2023-05-13T02:30:06.785Z,13.70
2023-05-13T02:32:34.487Z,13.70
2023-05-13T02:35:02.074Z,13.30
2023-05-13T02:37:29.961Z,13.60
2023-05-13T02:40:00.638Z,14.40
2023-05-13T02:42:28.248Z,13.40
2023-05-13T02:44:55.954Z,13.90
2023-05-13T02:47:24.398Z,14.40
2023-05-13T02:49:54.100Z,12.40
2023-05-13T02:52:23.978Z,12.00
2023-05-13T02:54:51.648Z,12.40
2023-05-13T02:57:19.362Z,13.30
2023-05-13T02:59:46.992Z,13.40
2023-05-13T03:02:14.705Z,12.20
2023-05-13T03:04:42.382Z,12.80
2023-05-13T03:07:10.540Z,13.40
2023-05-13T03:09:42.387Z,12.20
2023-05-13T03:12:10.097Z,12.10
2023-05-13T03:14:38.178Z,11.80
2023-05-13T03:17:06.602Z,12.30
2023-05-13T03:19:36.545Z,11.90
2023-05-13T03:22:05.550Z,11.30
2023-05-13T03:24:33.487Z,12.00
2023-05-13T03:27:02.251Z,12.10
2023-05-13T03:29:30.957Z,13.30
2023-05-13T03:31:58.827Z,13.20
2023-05-13T03:34:26.969Z,12.20
2023-05-13T03:36:54.856Z,12.50
2023-05-13T03:39:22.777Z,12.40
2023-05-13T03:41:50.408Z,12.30
2023-05-13T03:44:18.360Z,10.50
2023-05-13T03:46:46.124Z,10.30
2023-05-13T03:49:14.063Z,10.50
2023-05-13T03:51:42.038Z,11.00
2023-05-13T03:54:09.661Z,11.20
2023-05-13T03:56:37.436Z,12.00
2023-05-13T03:59:05.019Z,11.20
2023-05-13T04:01:32.674Z,11.30
2023-05-13T04:04:00.266Z,11.80
2023-05-13T04:06:27.832Z,12.50
2023-05-13T04:08:55.414Z,11.20
2023-05-13T04:11:23.007Z,10.60
2023-05-13T04:13:50.575Z,10.50
2023-05-13T04:16:18.187Z,10.10
2023-05-13T04:18:45.850Z,10.20
2023-05-13T04:21:13.462Z,9.90
2023-05-13T04:23:41.958Z,10.30
2023-05-13T04:26:09.585Z,10.00
2023-05-13T04:28:37.588Z,10.10
2023-05-13T04:31:05.410Z,8.80
2023-05-13T04:33:36.050Z,9.50
2023-05-13T04:36:04.453Z,9.00
2023-05-13T04:38:32.272Z,8.80
2023-05-13T04:40:59.916Z,7.20
2023-05-13T04:43:36.271Z,6.50
2023-05-13T04:46:04.074Z,6.30
2023-05-13T04:48:32.008Z,6.20
2023-05-13T04:51:00.159Z,7.10
2023-05-13T04:53:28.473Z,5.50
2023-05-13T04:56:00.984Z,6.30
2023-05-13T04:58:30.374Z,7.40
2023-05-13T05:00:58.190Z,6.40
2023-05-13T05:03:26.490Z,6.60
2023-05-13T05:05:54.706Z,6.10
2023-05-13T05:08:23.465Z,6.00
2023-05-13T05:10:51.689Z,5.90
2023-05-13T05:13:21.075Z,6.00
2023-05-13T05:15:48.713Z,6.90
2023-05-13T05:18:16.436Z,6.20
2023-05-13T05:20:47.074Z,6.70
2023-05-13T05:23:17.474Z,6.70
2023-05-13T05:25:45.300Z,6.00
2023-05-13T05:28:13.422Z,6.10
2023-05-13T05:30:43.418Z,6.80
2023-05-13T05:33:20.139Z,6.20
2023-05-13T05:35:48.800Z,6.00
2023-05-13T05:38:18.540Z,7.30
2023-05-13T05:40:47.579Z,5.30
2023-05-13T05:43:16.398Z,4.70
2023-05-13T05:45:44.183Z,5.80
2023-05-13T05:48:15.723Z,5.50
2023-05-13T05:50:43.760Z,5.70
2023-05-13T05:53:14.406Z,5.80
2023-05-13T05:55:42.386Z,6.00
2023-05-13T05:58:10.163Z,5.80
2023-05-13T06:00:38.820Z,5.30
2023-05-13T06:03:06.706Z,6.00
2023-05-13T06:05:35.404Z,5.40
2023-05-13T06:08:03.039Z,5.90
2023-05-13T06:10:30.922Z,5.30
2023-05-13T06:12:58.951Z,5.40
2023-05-13T06:15:26.614Z,4.80
2023-05-13T06:17:54.279Z,4.80
2023-05-13T06:20:22.584Z,4.20
2023-05-13T06:22:51.614Z,4.60
2023-05-13T06:25:19.236Z,4.60
2023-05-13T06:27:46.817Z,5.20
2023-05-13T06:30:14.535Z,6.50
2023-05-13T06:32:53.575Z,14.00
2023-05-13T06:35:25.344Z,5.70
2023-05-13T06:37:53.393Z,5.40
2023-05-13T06:40:21.802Z,3.80
2023-05-13T06:42:50.227Z,4.00
2023-05-13T06:45:24.514Z,5.40
2023-05-13T06:47:53.471Z,4.60
2023-05-13T06:50:21.665Z,4.00
2023-05-13T06:52:49.579Z,4.30
2023-05-13T06:55:18.868Z,4.30
2023-05-13T06:57:47.297Z,4.40
2023-05-13T07:00:15.850Z,3.90
2023-05-13T07:02:43.851Z,3.80
2023-05-13T07:05:12.445Z,4.10
2023-05-13T07:07:40.054Z,3.70
2023-05-13T07:10:07.899Z,5.50
2023-05-13T07:12:35.483Z,4.00
2023-05-13T07:15:03.248Z,4.50
2023-05-13T07:17:31.466Z,3.40
2023-05-13T07:19:59.370Z,3.60
2023-05-13T07:22:27.894Z,3.50
2023-05-13T07:24:56.383Z,3.50
2023-05-13T07:27:23.969Z,3.70
2023-05-13T07:29:51.642Z,3.20
2023-05-13T07:32:19.253Z,4.60
2023-05-13T07:34:46.901Z,4.30
2023-05-13T07:37:14.516Z,4.00
2023-05-13T07:39:42.625Z,3.90
2023-05-13T07:42:10.231Z,3.30
2023-05-13T07:44:37.812Z,4.00
2023-05-13T07:47:05.663Z,4.60
2023-05-13T07:49:33.409Z,4.20
2023-05-13T07:52:01.142Z,5.10
2023-05-13T07:54:28.745Z,3.60
2023-05-13T07:56:56.453Z,4.10
2023-05-13T07:59:24.037Z,3.80
2023-05-13T08:01:51.935Z,3.90
2023-05-13T08:04:19.691Z,3.70
2023-05-13T08:06:47.488Z,5.40
2023-05-13T08:09:15.162Z,4.20
2023-05-13T08:11:42.829Z,4.60
2023-05-13T08:14:10.545Z,5.80
2023-05-13T08:16:38.152Z,3.40
2023-05-13T08:19:05.802Z,4.80
2023-05-13T08:21:33.485Z,3.80
2023-05-13T08:24:01.569Z,4.00
2023-05-13T08:26:29.139Z,3.90
2023-05-13T08:28:57.909Z,6.60
2023-05-13T08:31:25.659Z,3.90
2023-05-13T08:33:53.953Z,4.20
2023-05-13T08:36:25.922Z,4.40
2023-05-13T08:38:53.529Z,3.70
2023-05-13T08:41:22.749Z,4.80
2023-05-13T08:43:52.054Z,4.10
2023-05-13T08:46:21.658Z,3.20
2023-05-13T08:48:49.572Z,6.70
2023-05-13T08:51:17.138Z,4.00
2023-05-13T08:53:45.421Z,4.40
2023-05-13T08:56:13.395Z,4.20
2023-05-13T08:58:41.435Z,4.30
2023-05-13T09:01:09.066Z,3.60
2023-05-13T09:03:48.213Z,3.60
2023-05-13T09:06:15.814Z,6.00
2023-05-13T09:08:43.392Z,4.40
2023-05-13T09:11:11.099Z,5.10
2023-05-13T09:13:38.698Z,3.70
2023-05-13T09:16:07.167Z,3.60
2023-05-13T09:18:35.409Z,4.60
2023-05-13T09:21:30.361Z,3.90
2023-05-13T09:24:13.485Z,3.50
2023-05-13T09:26:42.135Z,3.40
2023-05-13T09:29:21.946Z,4.40
2023-05-13T09:31:58.110Z,6.40
2023-05-13T09:34:28.032Z,3.20
2023-05-13T09:37:00.274Z,3.70
2023-05-13T09:39:28.950Z,4.90
2023-05-13T09:41:56.606Z,3.80
2023-05-13T09:44:24.584Z,5.10
2023-05-13T09:46:53.351Z,4.40
2023-05-13T09:49:26.520Z,10.60
2023-05-13T09:51:54.101Z,4.00
2023-05-13T09:54:21.809Z,5.40
2023-05-13T09:56:49.465Z,4.80
2023-05-13T09:59:17.068Z,4.80
2023-05-13T10:01:45.487Z,4.50
2023-05-13T10:04:13.749Z,3.50
2023-05-13T10:06:41.519Z,4.10
2023-05-13T10:09:10.077Z,4.50
2023-05-13T10:11:37.807Z,6.60
2023-05-13T10:14:06.448Z,3.70
2023-05-13T10:16:34.906Z,7.50
2023-05-13T10:19:04.069Z,5.30
2023-05-13T10:21:32.612Z,6.20
2023-05-13T10:24:01.898Z,5.80
2023-05-13T10:26:29.674Z,5.80
2023-05-13T10:28:57.550Z,7.30
2023-05-13T10:31:26.410Z,6.40
2023-05-13T10:33:54.098Z,3.90
2023-05-13T10:36:40.374Z,3.10
2023-05-13T10:39:34.740Z,3.60
2023-05-13T10:42:21.450Z,3.30
2023-05-13T10:44:54.322Z,10.70
2023-05-13T10:47:22.053Z,6.80
2023-05-13T10:49:53.276Z,7.90
2023-05-13T10:52:20.962Z,5.40
2023-05-13T10:55:18.351Z,12.30
2023-05-13T10:58:09.727Z,4.60
2023-05-13T11:00:44.635Z,5.50
2023-05-13T11:03:31.102Z,8.10
2023-05-13T11:06:00.485Z,7.10
2023-05-13T11:08:38.465Z,3.50
2023-05-13T11:11:22.542Z,5.30
2023-05-13T11:14:10.103Z,3.30
2023-05-13T11:16:38.115Z,5.60
2023-05-13T11:19:10.553Z,3.40
2023-05-13T11:21:57.413Z,3.10
2023-05-13T11:24:26.298Z,5.50
2023-05-13T11:26:56.470Z,3.50
2023-05-13T11:29:50.895Z,3.50
2023-05-13T11:32:47.837Z,4.30
2023-05-13T11:35:22.901Z,3.90
2023-05-13T11:37:50.965Z,6.00
2023-05-13T11:40:26.326Z,8.40
2023-05-13T11:42:54.750Z,5.40
2023-05-13T11:45:24.736Z,3.40
2023-05-13T11:47:53.389Z,3.90
2023-05-13T11:50:26.324Z,3.10
2023-05-13T11:52:58.362Z,4.70
2023-05-13T11:55:29.893Z,5.10
2023-05-13T11:57:58.750Z,4.40
2023-05-13T12:00:31.156Z,3.30
2023-05-13T12:02:59.689Z,3.70
2023-05-13T12:05:27.682Z,3.60
2023-05-13T12:07:59.014Z,5.00
2023-05-13T12:10:26.725Z,4.30
2023-05-13T12:12:54.431Z,3.80
2023-05-13T12:15:22.957Z,4.90
2023-05-13T12:17:51.110Z,3.60
2023-05-13T12:20:23.515Z,4.60
2023-05-13T12:22:53.761Z,3.60
2023-05-13T12:25:45.357Z,3.10
2023-05-13T12:28:26.328Z,4.40
2023-05-13T12:30:56.223Z,3.90
2023-05-13T12:33:26.515Z,5.20
2023-05-13T12:36:25.660Z,4.90
2023-05-13T12:38:55.930Z,3.90
2023-05-13T12:41:26.326Z,4.10
2023-05-13T12:44:01.674Z,3.30
2023-05-13T12:46:29.675Z,4.00
2023-05-13T12:48:59.703Z,3.60
2023-05-13T12:51:28.012Z,3.70
2023-05-13T12:53:56.591Z,5.70
2023-05-13T12:56:25.414Z,3.90
2023-05-13T12:58:54.277Z,5.80
2023-05-13T13:01:22.283Z,5.20
2023-05-13T13:03:50.391Z,5.90
2023-05-13T13:06:18.349Z,4.10
2023-05-13T13:08:45.944Z,3.80
2023-05-13T13:11:18.884Z,5.20
2023-05-13T13:13:48.037Z,4.60
2023-05-13T13:16:15.836Z,3.50
2023-05-13T13:18:43.511Z,4.50
2023-05-13T13:21:11.112Z,4.00
2023-05-13T13:23:38.757Z,3.80
2023-05-13T13:26:06.484Z,4.50
2023-05-13T13:28:34.105Z,5.60
2023-05-13T13:31:02.064Z,3.70
2023-05-13T13:33:29.636Z,3.90
2023-05-13T13:35:57.286Z,3.30
2023-05-13T13:38:24.860Z,4.10
2023-05-13T13:40:52.401Z,4.40
2023-05-13T13:43:20.009Z,3.50
2023-05-13T13:45:47.739Z,4.00
2023-05-13T13:48:15.631Z,3.30
2023-05-13T13:50:44.910Z,4.00
2023-05-13T13:53:14.445Z,4.20
2023-05-13T13:55:42.074Z,5.30
2023-05-13T13:58:09.650Z,4.80
2023-05-13T14:00:37.228Z,4.50
2023-05-13T14:03:04.924Z,4.10
2023-05-13T14:05:32.738Z,4.60
2023-05-13T14:08:00.740Z,4.70
2023-05-13T14:10:28.402Z,4.20
2023-05-13T14:12:56.470Z,4.80
2023-05-13T14:15:28.457Z,4.30
2023-05-13T14:17:56.614Z,5.20
2023-05-13T14:20:25.187Z,4.10
2023-05-13T14:22:52.771Z,4.50
2023-05-13T14:25:20.378Z,5.80
2023-05-13T14:27:47.974Z,4.20
2023-05-13T14:30:15.611Z,4.80
2023-05-13T14:32:47.162Z,6.80
2023-05-13T14:35:16.433Z,4.20
2023-05-13T14:37:44.084Z,6.20
2023-05-13T14:40:11.736Z,4.30
2023-05-13T14:42:39.365Z,5.80
2023-05-13T14:45:07.669Z,4.10
2023-05-13T14:47:35.835Z,3.60
2023-05-13T14:50:03.683Z,8.50
2023-05-13T14:52:31.261Z,5.70
2023-05-13T14:54:58.914Z,3.60
2023-05-13T14:57:26.744Z,3.40
2023-05-13T14:59:54.304Z,3.40
2023-05-13T15:02:22.091Z,3.70
2023-05-13T15:04:49.844Z,3.50
2023-05-13T15:07:18.130Z,3.10
2023-05-13T15:09:45.748Z,3.80
2023-05-13T15:12:13.333Z,3.70
2023-05-13T15:14:40.894Z,2.90
2023-05-13T15:17:11.858Z,5.30
2023-05-13T15:19:39.690Z,5.30
2023-05-13T15:22:07.280Z,3.10
2023-05-13T15:24:34.946Z,3.00
2023-05-13T15:27:03.695Z,3.20
2023-05-13T15:29:31.389Z,3.20
2023-05-13T15:31:59.297Z,3.30
2023-05-13T15:34:27.075Z,4.60
2023-05-13T15:36:54.636Z,3.60
2023-05-13T15:39:22.943Z,5.70
2023-05-13T15:41:50.669Z,3.10
2023-05-13T15:44:18.297Z,3.60
2023-05-13T15:46:48.877Z,3.90
2023-05-13T15:49:17.766Z,3.80
2023-05-13T15:51:45.661Z,3.70
2023-05-13T15:54:13.286Z,4.50
2023-05-13T15:56:40.890Z,4.50
2023-05-13T15:59:08.464Z,4.30
2023-05-13T16:01:37.557Z,5.10
2023-05-13T16:04:05.279Z,4.20
2023-05-13T16:06:33.231Z,4.20
2023-05-13T16:09:02.492Z,4.80
2023-05-13T16:11:30.269Z,4.70
2023-05-13T16:13:57.984Z,4.70
2023-05-13T16:16:25.731Z,4.50
2023-05-13T16:18:53.435Z,5.00
2023-05-13T16:21:21.080Z,4.10
2023-05-13T16:23:51.055Z,4.80
2023-05-13T16:26:18.767Z,6.50
2023-05-13T16:28:46.342Z,5.10
2023-05-13T16:31:13.942Z,5.00
2023-05-13T16:33:41.546Z,4.80
2023-05-13T16:36:11.276Z,5.10
2023-05-13T16:38:41.557Z,4.70
2023-05-13T16:41:10.884Z,4.40
2023-05-13T16:43:38.478Z,4.80
2023-05-13T16:46:06.083Z,5.20
2023-05-13T16:48:33.739Z,5.10
2023-05-13T16:51:01.319Z,5.60
2023-05-13T16:53:29.032Z,7.20
2023-05-13T16:55:56.647Z,5.90
2023-05-13T16:58:24.313Z,7.20
2023-05-13T17:00:52.458Z,5.40
2023-05-13T17:03:20.336Z,5.60
2023-05-13T17:05:48.225Z,5.90
2023-05-13T17:08:18.871Z,5.90
2023-05-13T17:10:46.506Z,6.00
2023-05-13T17:13:14.175Z,7.30
2023-05-13T17:15:42.206Z,4.70
2023-05-13T17:18:09.864Z,5.40
2023-05-13T17:20:37.509Z,6.20
2023-05-13T17:23:05.075Z,6.30
2023-05-13T17:25:32.757Z,6.20
2023-05-13T17:28:00.321Z,6.30
2023-05-13T17:30:27.905Z,8.60
2023-05-13T17:32:55.670Z,6.80
2023-05-13T17:35:23.397Z,6.70
2023-05-13T17:37:51.024Z,6.70
2023-05-13T17:40:18.680Z,5.70
2023-05-13T17:42:46.243Z,8.20
2023-05-13T17:45:13.963Z,7.70
2023-05-13T17:47:41.675Z,13.10
2023-05-13T17:50:10.345Z,13.60
2023-05-13T17:52:37.956Z,10.70
2023-05-13T17:55:06.469Z,10.30
2023-05-13T17:57:34.030Z,16.60
2023-05-13T18:00:04.745Z,11.20
2023-05-13T18:02:33.582Z,9.20
2023-05-13T18:05:01.697Z,8.30
2023-05-13T18:07:29.317Z,8.50
2023-05-13T18:09:57.019Z,9.60
2023-05-13T18:12:28.812Z,14.60
2023-05-13T18:14:56.413Z,15.40
2023-05-13T18:17:24.086Z,13.10
2023-05-13T18:19:51.716Z,20.20
2023-05-13T18:22:19.306Z,18.30
2023-05-13T18:24:47.001Z,18.80
2023-05-13T18:27:15.325Z,9.80
2023-05-13T18:29:42.929Z,14.70
2023-05-13T18:32:10.597Z,17.30
2023-05-13T18:34:38.170Z,10.30
2023-05-13T18:37:06.425Z,13.40
2023-05-13T18:39:34.115Z,13.60
2023-05-13T18:42:01.810Z,28.00
2023-05-13T18:44:30.321Z,23.80
2023-05-13T18:46:57.947Z,13.90
2023-05-13T18:49:29.380Z,17.20
2023-05-13T18:51:56.957Z,17.20
2023-05-13T18:54:29.181Z,16.20
2023-05-13T18:56:57.033Z,15.30
2023-05-13T18:59:24.618Z,14.10
2023-05-13T19:01:52.351Z,11.30
2023-05-13T19:04:20.624Z,9.00
2023-05-13T19:06:48.389Z,8.70
2023-05-13T19:09:16.292Z,7.50
2023-05-13T19:11:44.378Z,7.70
2023-05-13T19:14:11.944Z,8.10
2023-05-13T19:16:39.605Z,8.00
2023-05-13T19:19:07.263Z,7.80
2023-05-13T19:21:34.893Z,8.10
2023-05-13T19:24:03.410Z,9.20
2023-05-13T19:26:31.017Z,9.20
2023-05-13T19:28:58.701Z,10.70
2023-05-13T19:31:27.478Z,9.70
2023-05-13T19:33:55.161Z,10.40
2023-05-13T19:36:26.053Z,10.60
2023-05-13T19:38:55.200Z,11.40
2023-05-13T19:41:22.814Z,13.70
2023-05-13T19:43:50.468Z,14.10
2023-05-13T19:46:18.120Z,14.10
2023-05-13T19:48:46.240Z,13.70
2023-05-13T19:51:13.873Z,14.80
2023-05-13T19:53:41.756Z,15.00
2023-05-13T19:56:09.396Z,14.10
2023-05-13T19:58:37.397Z,14.50
2023-05-13T20:01:04.955Z,16.80
2023-05-13T20:03:32.981Z,15.20
2023-05-13T20:06:01.636Z,14.10
2023-05-13T20:08:31.547Z,13.00
2023-05-13T20:10:59.349Z,12.90
2023-05-13T20:13:26.910Z,12.20
2023-05-13T20:15:54.480Z,12.90
2023-05-13T20:18:22.093Z,12.60
2023-05-13T20:20:49.723Z,13.60
2023-05-13T20:23:17.284Z,11.90
2023-05-13T20:25:47.056Z,11.30
2023-05-13T20:28:14.900Z,11.30
2023-05-13T20:30:42.890Z,10.80
2023-05-13T20:33:10.742Z,10.50
2023-05-13T20:35:38.630Z,10.40
2023-05-13T20:38:06.916Z,10.90
2023-05-13T20:40:34.534Z,10.70
2023-05-13T20:43:02.197Z,11.50
2023-05-13T20:45:29.844Z,11.90
2023-05-13T20:47:59.206Z,10.80
2023-05-13T20:50:27.664Z,10.60
2023-05-13T20:52:55.441Z,11.30
2023-05-13T20:55:23.413Z,12.20
2023-05-13T20:57:51.088Z,11.70
2023-05-13T21:00:18.930Z,11.90
2023-05-13T21:02:46.618Z,12.50
2023-05-13T21:05:14.241Z,14.60
2023-05-13T21:07:41.860Z,14.60
2023-05-13T21:10:09.635Z,13.70
2023-05-13T21:12:37.513Z,13.40
2023-05-13T21:15:05.998Z,13.00
2023-05-13T21:17:33.662Z,12.90
2023-05-13T21:20:01.336Z,13.30
2023-05-13T21:22:28.913Z,13.50
2023-05-13T21:24:56.495Z,14.50
2023-05-13T21:27:24.080Z,15.50
2023-05-13T21:29:51.649Z,17.40
2023-05-13T21:32:19.442Z,18.70
2023-05-13T21:34:47.026Z,18.20
2023-05-13T21:37:16.654Z,22.80
2023-05-13T21:39:44.213Z,26.80
2023-05-13T21:42:11.784Z,23.80
2023-05-13T21:44:40.838Z,23.60
2023-05-13T21:47:08.419Z,18.40
2023-05-13T21:49:36.049Z,17.00
2023-05-13T21:52:03.819Z,15.90
2023-05-13T21:54:31.446Z,16.20
2023-05-13T21:56:59.035Z,16.80
2023-05-13T21:59:26.779Z,17.50
2023-05-13T22:01:54.415Z,17.80
2023-05-13T22:04:23.170Z,17.90
2023-05-13T22:06:51.704Z,17.20
2023-05-13T22:09:19.317Z,17.70
2023-05-13T22:11:46.916Z,19.40
2023-05-13T22:14:14.597Z,17.70
2023-05-13T22:16:42.304Z,17.70
2023-05-13T22:19:10.169Z,16.70
2023-05-13T22:21:38.182Z,16.20
2023-05-13T22:24:06.378Z,15.40
2023-05-13T22:26:36.591Z,14.80
2023-05-13T22:29:04.527Z,13.40
2023-05-13T22:31:32.133Z,12.40
2023-05-13T22:33:59.893Z,12.80
2023-05-13T22:36:27.677Z,12.50
2023-05-13T22:38:55.294Z,11.50
2023-05-13T22:41:23.847Z,11.70
2023-05-13T22:43:51.439Z,11.50
2023-05-13T22:46:19.087Z,11.10
2023-05-13T22:48:46.727Z,11.50
2023-05-13T22:51:14.328Z,11.30
2023-05-13T22:53:41.896Z,11.50
2023-05-13T22:56:09.500Z,10.10
2023-05-13T22:58:37.127Z,11.50
2023-05-13T23:01:04.743Z,10.60
2023-05-13T23:03:32.349Z,10.50
2023-05-13T23:05:59.919Z,10.70
2023-05-13T23:08:27.575Z,11.20
2023-05-13T23:10:55.925Z,10.00
2023-05-13T23:13:23.560Z,10.70
2023-05-13T23:15:51.180Z,10.30
2023-05-13T23:18:18.913Z,9.80
2023-05-13T23:20:51.200Z,10.60
2023-05-13T23:23:19.212Z,10.20
2023-05-13T23:25:48.315Z,9.80
2023-05-13T23:28:15.943Z,11.10
2023-05-13T23:30:43.814Z,10.60
2023-05-13T23:33:11.395Z,10.50
2023-05-13T23:35:39.045Z,9.30
2023-05-13T23:38:06.612Z,10.30
2023-05-13T23:40:34.184Z,10.10
2023-05-13T23:43:01.809Z,9.40
2023-05-13T23:45:29.401Z,9.80
2023-05-13T23:47:57.191Z,9.60
2023-05-13T23:50:25.063Z,9.70
2023-05-13T23:52:52.830Z,9.40
2023-05-13T23:55:20.576Z,9.20
2023-05-13T23:57:48.744Z,8.40
